createdAt,value
2019-05-16T00:00:29.433Z,7.15
2019-05-16T00:02:59.006Z,8.80
2019-05-16T00:05:28.316Z,9.35
2019-05-16T00:07:59.021Z,11.93
2019-05-16T00:10:28.350Z,7.58
2019-05-16T00:12:59.563Z,8.80
2019-05-16T00:15:28.870Z,8.70
2019-05-16T00:17:58.495Z,8.43
2019-05-16T00:20:28.429Z,8.55
2019-05-16T00:22:58.962Z,7.62
2019-05-16T00:25:28.786Z,8.33
2019-05-16T00:27:58.660Z,9.75
2019-05-16T00:30:28.704Z,8.68
2019-05-16T00:32:58.856Z,9.63
2019-05-16T00:35:28.492Z,9.03
2019-05-16T00:37:59.104Z,7.62
2019-05-16T00:40:28.367Z,8.33
2019-05-16T00:42:58.852Z,10.53
2019-05-16T00:45:29.420Z,8.75
2019-05-16T00:47:58.859Z,8.38
2019-05-16T00:50:28.841Z,9.10
2019-05-16T00:52:59.004Z,8.65
2019-05-16T00:55:29.144Z,10.38
2019-05-16T00:57:58.896Z,8.10
2019-05-16T01:00:59.521Z,10.25
2019-05-16T01:03:29.049Z,8.58
2019-05-16T01:05:58.385Z,9.85
2019-05-16T01:08:28.135Z,10.03
2019-05-16T01:10:58.675Z,10.53
2019-05-16T01:13:27.974Z,9.25
2019-05-16T01:15:57.955Z,9.83
2019-05-16T01:18:28.686Z,8.90
2019-05-16T01:20:58.593Z,11.53
2019-05-16T01:23:28.303Z,8.03
2019-05-16T01:25:58.833Z,9.68
2019-05-16T01:28:28.400Z,9.53
2019-05-16T01:30:58.135Z,8.68
2019-05-16T01:33:28.097Z,10.75
2019-05-16T01:35:58.485Z,11.08
2019-05-16T01:38:28.568Z,10.28
2019-05-16T01:40:58.350Z,9.18
2019-05-16T01:43:28.411Z,9.00
2019-05-16T01:45:57.911Z,9.78
2019-05-16T01:48:29.284Z,10.40
2019-05-16T01:50:58.395Z,10.05
2019-05-16T01:53:27.945Z,10.18
2019-05-16T01:55:58.051Z,9.40
2019-05-16T01:58:29.056Z,12.00
2019-05-16T02:01:05.956Z,8.98
2019-05-16T02:03:28.712Z,9.08
2019-05-16T02:05:58.544Z,8.43
2019-05-16T02:08:28.671Z,8.13
2019-05-16T02:10:58.502Z,10.08
2019-05-16T02:13:28.580Z,8.00
2019-05-16T02:15:59.364Z,8.25
2019-05-16T02:18:28.918Z,8.68
2019-05-16T02:20:58.658Z,8.75
2019-05-16T02:23:28.719Z,8.88
2019-05-16T02:25:58.114Z,10.08
2019-05-16T02:28:31.061Z,8.53
2019-05-16T02:31:01.156Z,9.10
2019-05-16T02:33:31.535Z,9.80
2019-05-16T02:36:01.816Z,8.55
2019-05-16T02:38:31.746Z,8.98
2019-05-16T02:41:03.101Z,9.90
2019-05-16T02:43:31.788Z,8.28
2019-05-16T02:46:01.443Z,9.55
2019-05-16T02:48:31.594Z,10.00
2019-05-16T02:51:02.017Z,10.20
2019-05-16T02:53:31.216Z,10.50
2019-05-16T02:56:01.329Z,11.65
2019-05-16T02:58:31.019Z,8.58
2019-05-16T03:01:01.919Z,8.73
2019-05-16T03:03:31.727Z,9.73
2019-05-16T03:06:01.875Z,8.90
2019-05-16T03:08:32.089Z,9.20
2019-05-16T03:11:01.467Z,10.25
2019-05-16T03:13:33.282Z,10.32
2019-05-16T03:16:02.978Z,9.05
2019-05-16T03:18:33.161Z,10.30
2019-05-16T03:21:02.240Z,9.23
2019-05-16T03:23:31.584Z,11.75
2019-05-16T03:26:01.141Z,10.28
2019-05-16T03:28:30.801Z,11.78
2019-05-16T03:31:05.397Z,9.05
2019-05-16T03:33:40.176Z,11.00
2019-05-16T03:36:04.494Z,9.85
2019-05-16T03:38:32.165Z,10.93
2019-05-16T03:41:01.245Z,10.18
2019-05-16T03:43:31.016Z,9.80
2019-05-16T03:46:02.475Z,10.90
2019-05-16T03:48:31.632Z,15.05
2019-05-16T03:51:01.086Z,9.60
2019-05-16T03:53:31.862Z,9.15
2019-05-16T03:56:01.865Z,10.13
2019-05-16T03:58:31.277Z,10.85
2019-05-16T04:01:02.484Z,11.90
2019-05-16T04:03:33.194Z,10.40
2019-05-16T04:06:02.183Z,12.50
2019-05-16T04:08:31.394Z,10.25
2019-05-16T04:11:01.587Z,11.83
2019-05-16T04:13:31.700Z,11.28
2019-05-16T04:16:01.604Z,11.68
2019-05-16T04:18:31.781Z,12.18
2019-05-16T04:21:01.464Z,12.80
2019-05-16T04:23:31.465Z,11.40
2019-05-16T04:26:01.109Z,10.58
2019-05-16T04:28:31.915Z,11.70
2019-05-16T04:31:02.189Z,12.45
2019-05-16T04:33:31.396Z,12.50
2019-05-16T04:36:01.267Z,11.75
2019-05-16T04:38:40.343Z,13.25
2019-05-16T04:41:01.712Z,11.90
2019-05-16T04:43:31.788Z,14.58
2019-05-16T04:46:01.608Z,11.60
2019-05-16T04:48:31.349Z,13.65
2019-05-16T04:51:01.280Z,11.65
2019-05-16T04:53:31.649Z,12.15
2019-05-16T04:56:01.780Z,12.28
2019-05-16T04:58:31.820Z,15.38
2019-05-16T05:01:01.813Z,10.80
2019-05-16T05:03:31.734Z,11.93
2019-05-16T05:06:01.478Z,15.08
2019-05-16T05:08:40.951Z,13.30
2019-05-16T05:11:01.693Z,11.95
2019-05-16T05:13:30.866Z,12.73
2019-05-16T05:16:01.247Z,13.93
2019-05-16T05:18:30.784Z,14.65
2019-05-16T05:21:00.898Z,15.32
2019-05-16T05:23:30.394Z,14.95
2019-05-16T05:26:00.275Z,15.03
2019-05-16T05:28:30.070Z,13.43
2019-05-16T05:30:59.909Z,12.75
2019-05-16T05:33:30.231Z,13.58
2019-05-16T05:36:01.017Z,12.28
2019-05-16T05:38:31.039Z,11.70
2019-05-16T05:41:00.437Z,14.03
2019-05-16T05:43:30.581Z,12.93
2019-05-16T05:46:00.794Z,11.68
2019-05-16T05:48:30.815Z,13.43
2019-05-16T05:51:00.473Z,14.28
2019-05-16T05:53:30.170Z,11.15
2019-05-16T05:56:00.382Z,13.70
2019-05-16T05:58:30.914Z,14.15
2019-05-16T06:01:00.760Z,11.05
2019-05-16T06:03:32.751Z,12.05
2019-05-16T06:06:01.187Z,11.40
2019-05-16T06:08:30.741Z,10.60
2019-05-16T06:11:00.725Z,11.03
2019-05-16T06:13:31.065Z,12.60
2019-05-16T06:16:00.422Z,12.65
2019-05-16T06:18:30.590Z,10.82
2019-05-16T06:21:00.615Z,10.58
2019-05-16T06:23:31.066Z,11.50
2019-05-16T06:26:00.731Z,12.50
2019-05-16T06:28:30.891Z,11.55
2019-05-16T06:31:01.852Z,11.80
2019-05-16T06:33:30.956Z,12.45
2019-05-16T06:36:00.383Z,10.93
2019-05-16T06:38:30.038Z,10.58
2019-05-16T06:41:00.410Z,10.85
2019-05-16T06:43:30.299Z,10.98
2019-05-16T06:46:00.684Z,10.90
2019-05-16T06:48:30.473Z,10.98
2019-05-16T06:51:02.857Z,11.10
2019-05-16T06:53:30.505Z,12.18
2019-05-16T06:56:00.184Z,11.05
2019-05-16T06:58:30.302Z,12.33
2019-05-16T07:01:03.406Z,12.88
2019-05-16T07:03:31.004Z,11.90
2019-05-16T07:06:00.670Z,10.40
2019-05-16T07:08:30.945Z,11.75
2019-05-16T07:11:00.424Z,10.28
2019-05-16T07:13:30.450Z,11.93
2019-05-16T07:16:00.481Z,11.65
2019-05-16T07:18:31.077Z,12.00
2019-05-16T07:21:00.518Z,11.08
2019-05-16T07:23:29.978Z,10.13
2019-05-16T07:26:00.848Z,12.70
2019-05-16T07:28:30.218Z,12.05
2019-05-16T07:31:02.895Z,10.85
2019-05-16T07:33:31.134Z,10.35
2019-05-16T07:36:00.565Z,15.32
2019-05-16T07:38:30.870Z,12.20
2019-05-16T07:41:00.333Z,12.63
2019-05-16T07:43:30.845Z,10.70
2019-05-16T07:46:00.619Z,12.55
2019-05-16T07:48:31.569Z,12.65
2019-05-16T07:51:03.218Z,13.35
2019-05-16T07:53:33.217Z,8.10
2019-05-16T07:56:05.388Z,9.60
2019-05-16T07:58:37.026Z,10.90
2019-05-16T08:01:08.993Z,10.55
2019-05-16T08:03:36.946Z,10.25
2019-05-16T08:06:10.691Z,10.53
2019-05-16T08:08:40.386Z,13.15
2019-05-16T08:11:12.216Z,10.98
2019-05-16T08:13:40.394Z,10.20
2019-05-16T08:16:10.338Z,11.55
2019-05-16T08:18:44.743Z,10.93
2019-05-16T08:21:12.805Z,10.23
2019-05-16T08:23:41.285Z,10.72
2019-05-16T08:26:10.570Z,12.58
2019-05-16T08:28:41.400Z,10.38
2019-05-16T08:31:11.751Z,10.85
2019-05-16T08:33:41.681Z,12.40
2019-05-16T08:36:11.896Z,10.50
2019-05-16T08:38:43.366Z,11.05
2019-05-16T08:41:16.910Z,10.95
2019-05-16T08:43:42.943Z,8.73
2019-05-16T08:46:12.465Z,10.30
2019-05-16T08:51:12.615Z,10.10
2019-05-16T08:53:44.697Z,14.58
2019-05-16T08:56:13.861Z,10.53
2019-05-16T08:58:42.994Z,10.48
2019-05-16T09:01:14.763Z,10.88
2019-05-16T09:03:42.985Z,12.85
2019-05-16T09:06:12.098Z,11.43
2019-05-16T09:08:41.209Z,10.05
2019-05-16T09:10:31.814Z,9.85
2019-05-16T09:11:30.027Z,10.28
2019-05-16T09:13:41.090Z,10.85
2019-05-16T09:16:10.187Z,11.53
2019-05-16T09:18:41.039Z,11.05
2019-05-16T09:21:09.963Z,10.58
2019-05-16T09:23:39.115Z,10.55
2019-05-16T09:26:08.250Z,11.38
2019-05-16T09:28:39.007Z,11.22
2019-05-16T09:31:08.255Z,11.68
2019-05-16T09:33:37.625Z,12.98
2019-05-16T09:36:08.101Z,12.50
2019-05-16T09:38:38.457Z,10.78
2019-05-16T09:41:08.012Z,13.10
2019-05-16T09:43:38.844Z,12.90
2019-05-16T09:46:08.045Z,13.32
2019-05-16T09:48:38.320Z,12.23
2019-05-16T09:51:07.535Z,14.07
2019-05-16T09:53:36.758Z,10.55
2019-05-16T09:56:07.052Z,11.30
2019-05-16T09:58:37.214Z,11.12
2019-05-16T10:01:06.875Z,12.30
2019-05-16T10:03:37.301Z,11.38
2019-05-16T10:06:08.023Z,12.15
2019-05-16T10:08:37.530Z,11.68
2019-05-16T10:11:06.744Z,10.25
2019-05-16T10:13:37.534Z,11.83
2019-05-16T10:16:07.185Z,11.68
2019-05-16T10:18:37.098Z,11.28
2019-05-16T10:21:08.065Z,12.90
2019-05-16T10:23:37.064Z,12.35
2019-05-16T10:26:06.157Z,10.65
2019-05-16T10:28:38.192Z,11.68
2019-05-16T10:31:06.924Z,12.00
2019-05-16T10:33:39.062Z,11.35
2019-05-16T10:36:08.404Z,12.05
2019-05-16T10:38:37.830Z,13.08
2019-05-16T10:41:07.430Z,13.88
2019-05-16T10:43:37.141Z,12.23
2019-05-16T10:46:06.693Z,12.58
2019-05-16T10:48:37.608Z,13.53
2019-05-16T10:51:07.843Z,11.83
2019-05-16T10:54:00.608Z,11.50
2019-05-16T10:56:08.026Z,10.90
2019-05-16T10:58:59.263Z,12.03
2019-05-16T11:01:22.259Z,11.55
2019-05-16T11:03:39.595Z,11.88
2019-05-16T11:06:17.402Z,11.45
2019-05-16T11:08:39.639Z,13.53
2019-05-16T11:11:08.805Z,11.20
2019-05-16T11:13:37.860Z,11.53
2019-05-16T11:16:09.416Z,11.93
2019-05-16T11:18:37.734Z,11.68
2019-05-16T11:21:06.888Z,13.62
2019-05-16T11:23:36.771Z,11.45
2019-05-16T11:26:05.863Z,12.30
2019-05-16T11:28:36.834Z,16.82
2019-05-16T11:31:07.720Z,12.05
2019-05-16T11:33:37.092Z,12.68
2019-05-16T11:36:08.078Z,11.25
2019-05-16T11:38:37.864Z,11.88
2019-05-16T11:41:07.474Z,11.57
2019-05-16T11:43:36.826Z,12.13
2019-05-16T11:46:06.109Z,14.40
2019-05-16T11:48:37.800Z,12.50
2019-05-16T11:51:07.262Z,11.53
2019-05-16T11:53:37.810Z,11.25
2019-05-16T11:56:08.317Z,11.00
2019-05-16T11:58:37.727Z,12.73
2019-05-16T12:01:07.643Z,10.82
2019-05-16T12:03:37.494Z,10.78
2019-05-16T12:06:10.430Z,12.23
2019-05-16T12:08:37.486Z,11.05
2019-05-16T12:11:07.038Z,12.43
2019-05-16T12:13:36.923Z,10.98
2019-05-16T12:16:07.542Z,10.93
2019-05-16T12:18:37.461Z,11.57
2019-05-16T12:21:07.593Z,11.65
2019-05-16T12:23:37.537Z,10.55
2019-05-16T12:26:07.838Z,11.08
2019-05-16T12:28:37.279Z,10.30
2019-05-16T12:31:07.163Z,10.70
2019-05-16T12:33:37.535Z,13.68
2019-05-16T12:36:07.496Z,9.33
2019-05-16T12:38:37.944Z,11.08
2019-05-16T12:41:08.075Z,10.90
2019-05-16T12:43:46.285Z,10.13
2019-05-16T12:46:07.942Z,10.75
2019-05-16T12:48:37.430Z,9.53
2019-05-16T12:51:08.617Z,12.00
2019-05-16T12:53:37.685Z,10.32
2019-05-16T12:56:06.826Z,11.68
2019-05-16T12:58:41.403Z,11.18
2019-05-16T13:01:07.758Z,14.23
2019-05-16T13:03:37.992Z,10.75
2019-05-16T13:06:07.253Z,12.13
2019-05-16T13:08:37.495Z,11.90
2019-05-16T13:11:07.374Z,13.40
2019-05-16T13:13:37.574Z,12.82
2019-05-16T13:16:07.712Z,12.45
2019-05-16T13:18:37.119Z,11.45
2019-05-16T13:21:06.822Z,12.98
2019-05-16T13:23:36.267Z,14.30
2019-05-16T13:26:07.346Z,14.07
2019-05-16T13:28:37.898Z,15.15
2019-05-16T13:31:07.873Z,13.68
2019-05-16T13:33:37.127Z,12.98
2019-05-16T13:36:07.491Z,12.70
2019-05-16T13:38:36.901Z,15.30
2019-05-16T13:41:07.403Z,14.43
2019-05-16T13:43:37.662Z,13.80
2019-05-16T13:46:07.366Z,11.68
2019-05-16T13:48:37.707Z,11.53
2019-05-16T13:51:14.886Z,12.15
2019-05-16T13:53:37.756Z,13.20
2019-05-16T13:56:12.550Z,13.43
2019-05-16T13:58:37.624Z,13.50
2019-05-16T14:01:07.817Z,13.55
2019-05-16T14:03:37.605Z,13.03
2019-05-16T14:06:07.336Z,13.70
2019-05-16T14:08:37.381Z,13.68
2019-05-16T14:11:10.160Z,11.95
2019-05-16T14:13:37.835Z,11.80
2019-05-16T14:16:07.412Z,13.18
2019-05-16T14:18:37.942Z,12.23
2019-05-16T14:21:07.309Z,13.58
2019-05-16T14:23:38.125Z,14.50
2019-05-16T14:26:07.421Z,13.70
2019-05-16T14:28:37.454Z,13.68
2019-05-16T14:31:07.589Z,14.07
2019-05-16T14:33:36.878Z,14.63
2019-05-16T14:36:07.422Z,14.78
2019-05-16T14:38:37.424Z,14.75
2019-05-16T14:41:08.071Z,13.50
2019-05-16T14:43:37.572Z,14.30
2019-05-16T14:46:09.388Z,14.98
2019-05-16T14:48:37.527Z,19.07
2019-05-16T14:51:06.680Z,13.50
2019-05-16T14:53:37.851Z,13.62
2019-05-16T14:56:07.021Z,13.38
2019-05-16T14:58:37.877Z,14.53
2019-05-16T15:01:07.557Z,12.85
2019-05-16T15:03:37.088Z,14.93
2019-05-16T15:06:08.621Z,15.08
2019-05-16T15:08:37.036Z,15.98
2019-05-16T15:11:07.570Z,15.25
2019-05-16T15:13:36.845Z,15.32
2019-05-16T15:16:07.681Z,13.50
2019-05-16T15:18:38.408Z,13.68
2019-05-16T15:21:08.742Z,14.93
2019-05-16T15:23:38.158Z,15.53
2019-05-16T15:26:09.456Z,14.83
2019-05-16T15:28:38.027Z,15.18
2019-05-16T15:31:07.168Z,15.35
2019-05-16T15:33:36.614Z,17.00
2019-05-16T15:36:08.495Z,16.67
2019-05-16T15:38:36.747Z,15.60
2019-05-16T15:41:08.121Z,14.78
2019-05-16T15:43:37.044Z,16.17
2019-05-16T15:46:08.043Z,15.83
2019-05-16T15:48:37.689Z,14.40
2019-05-16T15:51:08.722Z,17.15
2019-05-16T15:53:39.073Z,17.32
2019-05-16T15:56:10.327Z,16.20
2019-05-16T15:58:39.018Z,16.02
2019-05-16T16:01:08.170Z,21.65
2019-05-16T16:03:38.189Z,15.25
2019-05-16T16:06:07.580Z,17.32
2019-05-16T16:08:37.486Z,16.52
2019-05-16T16:11:07.486Z,17.32
2019-05-16T16:13:37.403Z,16.48
2019-05-16T16:16:10.266Z,17.02
2019-05-16T16:18:37.905Z,17.80
2019-05-16T16:21:07.682Z,16.80
2019-05-16T16:23:37.491Z,15.15
2019-05-16T16:26:07.219Z,16.57
2019-05-16T16:28:38.114Z,16.42
2019-05-16T16:31:07.762Z,16.62
2019-05-16T16:33:37.548Z,14.65
2019-05-16T16:36:07.846Z,14.70
2019-05-16T16:38:37.380Z,19.70
2019-05-16T16:41:08.061Z,14.80
2019-05-16T16:43:37.597Z,16.15
2019-05-16T16:46:12.595Z,20.90
2019-05-16T16:48:37.477Z,14.93
2019-05-16T16:51:06.828Z,18.15
2019-05-16T16:53:37.855Z,15.15
2019-05-16T16:56:07.526Z,15.45
2019-05-16T16:58:37.423Z,17.65
2019-05-16T17:01:07.562Z,15.13
2019-05-16T17:03:37.067Z,17.20
2019-05-16T17:06:06.349Z,14.85
2019-05-16T17:08:37.421Z,16.23
2019-05-16T17:11:07.176Z,16.75
2019-05-16T17:13:36.903Z,19.87
2019-05-16T17:16:21.544Z,15.28
2019-05-16T17:18:37.095Z,14.90
2019-05-16T17:21:07.873Z,13.98
2019-05-16T17:23:37.174Z,15.10
2019-05-16T17:26:07.247Z,19.65
2019-05-16T17:28:37.266Z,20.82
2019-05-16T17:31:07.308Z,14.30
2019-05-16T17:33:38.118Z,19.07
2019-05-16T17:36:09.137Z,17.02
2019-05-16T17:38:38.103Z,15.65
2019-05-16T17:41:07.640Z,16.40
2019-05-16T17:43:36.965Z,16.60
2019-05-16T17:46:07.016Z,17.40
2019-05-16T17:48:37.931Z,16.82
2019-05-16T17:51:07.398Z,15.80
2019-05-16T17:53:37.403Z,14.45
2019-05-16T17:56:07.076Z,15.55
2019-05-16T17:58:36.297Z,14.47
2019-05-16T18:01:07.423Z,15.08
2019-05-16T18:03:37.254Z,16.05
2019-05-16T18:06:06.870Z,16.85
2019-05-16T18:08:37.574Z,15.55
2019-05-16T18:11:07.286Z,15.68
2019-05-16T18:13:37.267Z,19.52
2019-05-16T18:16:07.522Z,15.13
2019-05-16T18:18:37.502Z,15.95
2019-05-16T18:21:07.266Z,16.23
2019-05-16T18:23:36.969Z,27.55
2019-05-16T18:26:07.613Z,17.00
2019-05-16T18:28:37.064Z,18.55
2019-05-16T18:31:06.141Z,15.72
2019-05-16T18:33:37.118Z,15.88
2019-05-16T18:36:07.653Z,17.87
2019-05-16T18:38:37.419Z,18.82
2019-05-16T18:41:07.784Z,16.45
2019-05-16T18:43:37.070Z,16.87
2019-05-16T18:46:07.217Z,17.20
2019-05-16T18:48:36.818Z,16.20
2019-05-16T18:51:06.724Z,18.15
2019-05-16T18:53:37.515Z,17.17
2019-05-16T18:56:07.716Z,14.90
2019-05-16T18:58:37.340Z,15.45
2019-05-16T19:01:06.777Z,16.17
2019-05-16T19:03:36.201Z,17.50
2019-05-16T19:06:07.532Z,17.23
2019-05-16T19:08:36.437Z,15.95
2019-05-16T19:11:07.421Z,17.27
2019-05-16T19:13:38.726Z,15.65
2019-05-16T19:16:07.803Z,16.97
2019-05-16T19:18:37.067Z,18.05
2019-05-16T19:21:07.549Z,16.75
2019-05-16T19:23:37.574Z,17.92
2019-05-16T19:26:07.323Z,16.52
2019-05-16T19:28:37.381Z,17.52
2019-05-16T19:31:07.098Z,18.00
2019-05-16T19:33:36.207Z,17.23
2019-05-16T19:36:07.296Z,18.12
2019-05-16T19:38:37.436Z,20.95
2019-05-16T19:41:08.053Z,20.62
2019-05-16T19:43:37.394Z,17.77
2019-05-16T19:46:06.470Z,18.10
2019-05-16T19:48:37.055Z,17.67
2019-05-16T19:51:07.367Z,17.85
2019-05-16T19:53:36.794Z,19.95
2019-05-16T19:56:07.220Z,18.17
2019-05-16T19:58:37.237Z,16.65
2019-05-16T20:01:06.585Z,16.50
2019-05-16T20:03:36.523Z,16.55
2019-05-16T20:06:07.549Z,18.85
2019-05-16T20:08:37.369Z,14.83
2019-05-16T20:11:06.652Z,18.70
2019-05-16T20:13:36.722Z,18.30
2019-05-16T20:16:06.105Z,18.17
2019-05-16T20:18:37.222Z,17.80
2019-05-16T20:21:06.007Z,18.20
2019-05-16T20:23:37.003Z,21.33
2019-05-16T20:26:07.828Z,15.83
2019-05-16T20:28:37.058Z,16.77
2019-05-16T20:31:08.043Z,16.05
2019-05-16T20:33:37.676Z,18.85
2019-05-16T20:36:09.534Z,17.57
2019-05-16T20:38:37.731Z,20.48
2019-05-16T20:41:07.806Z,18.40
2019-05-16T20:43:37.195Z,17.23
2019-05-16T20:46:07.252Z,19.32
2019-05-16T20:48:36.960Z,19.32
2019-05-16T20:51:07.201Z,17.02
2019-05-16T20:53:37.555Z,18.90
2019-05-16T20:56:06.926Z,20.30
2019-05-16T20:58:35.933Z,20.68
2019-05-16T21:01:07.019Z,19.90
2019-05-16T21:03:37.771Z,20.90
2019-05-16T21:06:08.553Z,19.87
2019-05-16T21:08:37.389Z,18.55
2019-05-16T21:11:06.634Z,18.40
2019-05-16T21:13:35.721Z,19.98
2019-05-16T21:16:07.048Z,21.85
2019-05-16T21:18:37.692Z,20.12
2019-05-16T21:21:07.632Z,21.07
2019-05-16T21:23:36.993Z,21.73
2019-05-16T21:26:06.099Z,19.85
2019-05-16T21:28:36.888Z,19.92
2019-05-16T21:31:07.406Z,24.12
2019-05-16T21:33:37.058Z,20.90
2019-05-16T21:36:07.244Z,20.90
2019-05-16T21:38:36.527Z,20.27
2019-05-16T21:41:07.307Z,20.25
2019-05-16T21:43:37.760Z,19.35
2019-05-16T21:46:07.378Z,22.20
2019-05-16T21:48:37.114Z,19.73
2019-05-16T21:51:07.956Z,19.90
2019-05-16T21:53:37.179Z,21.35
2019-05-16T21:56:07.050Z,20.17
2019-05-16T21:58:37.094Z,21.45
2019-05-16T22:01:08.651Z,17.95
2019-05-16T22:03:37.874Z,22.42
2019-05-16T22:06:08.069Z,23.25
2019-05-16T22:08:37.238Z,22.87
2019-05-16T22:11:06.822Z,23.62
2019-05-16T22:13:37.027Z,21.20
2019-05-16T22:16:08.059Z,22.62
2019-05-16T22:18:38.583Z,20.32
2019-05-16T22:21:07.951Z,21.02
2019-05-16T22:23:37.434Z,20.35
2019-05-16T22:26:07.609Z,21.85
2019-05-16T22:28:37.448Z,21.10
2019-05-16T22:31:07.474Z,21.35
2019-05-16T22:33:37.433Z,22.37
2019-05-16T22:36:07.108Z,22.00
2019-05-16T22:38:36.307Z,22.98
2019-05-16T22:41:07.268Z,22.82
2019-05-16T22:43:37.157Z,25.45
2019-05-16T22:46:09.517Z,23.10
2019-05-16T22:48:37.303Z,23.57
2019-05-16T22:51:07.208Z,20.92
2019-05-16T22:53:36.927Z,22.75
2019-05-16T22:56:07.388Z,22.87
2019-05-16T22:58:36.679Z,20.50
2019-05-16T23:01:06.924Z,23.38
2019-05-16T23:03:37.978Z,21.50
2019-05-16T23:06:07.816Z,21.73
2019-05-16T23:08:37.078Z,22.87
2019-05-16T23:11:07.387Z,24.75
2019-05-16T23:13:36.667Z,20.72
2019-05-16T23:16:06.800Z,19.98
2019-05-16T23:18:37.495Z,21.57
2019-05-16T23:21:06.823Z,20.70
2019-05-16T23:23:37.201Z,22.98
2019-05-16T23:26:06.608Z,20.82
2019-05-16T23:28:36.777Z,22.90
2019-05-16T23:31:06.232Z,25.25
2019-05-16T23:33:36.555Z,22.02
2019-05-16T23:36:07.052Z,22.25
2019-05-16T23:38:36.831Z,22.62
2019-05-16T23:41:06.647Z,22.73
2019-05-16T23:43:37.335Z,22.77
2019-05-16T23:46:07.180Z,20.92
2019-05-16T23:48:36.602Z,23.77
2019-05-16T23:51:07.771Z,19.37
2019-05-16T23:53:37.074Z,24.32
2019-05-16T23:56:07.499Z,22.22
2019-05-16T23:58:37.059Z,20.32
